Time;durP1;ratioP1;P1;durP2;ratioP2;P2;SDS_P1;SDS_P2;PMS_P1;PMS_P2;Temp;Humidity;BMP_temperature;BMP_pressure;BME280_temperature;BME280_humidity;BME280_pressure;Samples;Min_cycle;Max_cycle;Signal;HPM_P1;HPM_P2
2023/02/02 00:01:11;;;;;;;0.52;0.10;;;;;;;0.25;71.34;100094.19;5062653;28;20408;-80
2023/02/02 00:03:39;;;;;;;1.50;0.10;;;;;;;0.27;71.61;100097.66;5062997;28;20479;-81
2023/02/02 00:06:07;;;;;;;0.55;0.10;;;;;;;0.28;70.97;100104.50;5061848;28;20059;-82
2023/02/02 00:08:35;;;;;;;0.32;0.00;;;;;;;0.26;71.25;100101.06;5063510;28;20048;-80
2023/02/02 00:11:02;;;;;;;0.95;0.05;;;;;;;0.26;71.72;100110.47;5063592;28;20421;-81
2023/02/02 00:13:29;;;;;;;0.30;0.00;;;;;;;0.15;71.21;100100.94;5062420;28;20888;-81
2023/02/02 00:15:56;;;;;;;1.40;0.10;;;;;;;0.26;71.03;100120.72;5063983;28;20052;-81
2023/02/02 00:18:23;;;;;;;0.17;0.05;;;;;;;0.24;71.64;100114.72;5062697;28;20845;-81
2023/02/02 00:20:52;;;;;;;0.85;0.00;;;;;;;0.24;71.01;100122.44;5061919;28;20055;-81
2023/02/02 00:23:19;;;;;;;0.45;0.00;;;;;;;0.23;71.88;100124.16;5061836;28;20048;-80
2023/02/02 00:25:49;;;;;;;0.50;0.08;;;;;;;0.08;71.53;100106.81;5064207;28;20059;-80
2023/02/02 00:28:16;;;;;;;0.00;0.00;;;;;;;0.20;71.24;100130.09;5062827;28;20058;-81
2023/02/02 00:30:44;;;;;;;1.35;0.10;;;;;;;0.18;71.49;100136.91;5062027;28;20413;-81
2023/02/02 00:33:11;;;;;;;0.00;0.00;;;;;;;0.19;71.42;100136.06;5063084;28;20044;-81
2023/02/02 00:35:41;;;;;;;1.65;0.10;;;;;;;0.17;71.74;100131.75;5062755;28;21038;-80
2023/02/02 00:38:09;;;;;;;1.20;0.75;;;;;;;0.16;71.18;100141.16;5061621;28;20048;-81
2023/02/02 00:40:36;;;;;;;0.73;0.00;;;;;;;0.02;71.35;100119.56;5063421;28;21703;-80
2023/02/02 00:43:03;;;;;;;0.65;0.10;;;;;;;0.16;71.15;100154.00;5061236;28;20054;-81
2023/02/02 00:45:29;;;;;;;0.20;0.10;;;;;;;0.13;71.47;100150.53;5060627;28;20052;-81
2023/02/02 00:47:56;;;;;;;0.17;0.00;;;;;;;0.04;71.15;100143.56;5062803;28;20098;-81
2023/02/02 00:50:23;;;;;;;0.08;0.00;;;;;;;0.15;71.75;100154.84;5061586;28;20052;-81
2023/02/02 00:52:51;;;;;;;0.03;0.00;;;;;;;0.14;71.19;100163.41;5063328;28;20048;-81
2023/02/02 00:55:20;;;;;;;0.10;0.00;;;;;;;0.14;71.55;100163.41;5061812;28;20045;-81
2023/02/02 00:57:47;;;;;;;0.00;0.00;;;;;;;0.10;71.02;100155.63;5062601;28;20057;-81
2023/02/02 01:00:17;;;;;;;2.83;0.00;;;;;;;0.11;71.94;100163.34;5061711;28;20063;-81
2023/02/02 01:02:44;;;;;;;0.30;0.00;;;;;;;0.12;71.16;100162.53;5059976;28;20139;-80
2023/02/02 01:05:12;;;;;;;0.73;0.00;;;;;;;0.11;71.01;100163.34;5059565;28;20526;-81
2023/02/02 01:07:40;;;;;;;0.10;0.10;;;;;;;0.08;70.68;100167.59;5059626;28;20044;-80
2023/02/02 01:10:11;;;;;;;1.88;0.20;;;;;;;0.00;71.41;100159.78;5062781;28;20060;-81
2023/02/02 01:12:39;;;;;;;1.75;0.00;;;;;;;0.07;71.35;100179.56;5066956;28;20037;-81
2023/02/02 01:15:07;;;;;;;0.00;0.00;;;;;;;0.06;71.20;100182.09;5069208;28;20128;-81
2023/02/02 01:17:34;;;;;;;0.00;0.00;;;;;;;0.04;70.96;100189.78;5059773;28;20047;-81
2023/02/02 01:20:01;;;;;;;0.08;0.00;;;;;;;-0.01;71.37;100181.16;5058971;28;20568;-81
2023/02/02 01:22:28;;;;;;;0.75;0.00;;;;;;;0.04;71.30;100199.22;5053275;28;20059;-80
2023/02/02 01:24:55;;;;;;;3.30;0.10;;;;;;;0.03;70.65;100203.50;5070054;28;20053;-80
2023/02/02 01:27:22;;;;;;;0.10;0.00;;;;;;;0.03;70.42;100200.91;5063172;28;20048;-81
2023/02/02 01:29:50;;;;;;;3.30;0.17;;;;;;;0.03;70.84;100212.88;5068702;28;20052;-81
2023/02/02 01:32:17;;;;;;;2.47;0.00;;;;;;;0.00;71.44;100221.41;5063536;28;20511;-80
2023/02/02 01:34:44;;;;;;;0.08;0.00;;;;;;;-0.01;71.02;100219.66;5068923;28;20049;-81
2023/02/02 01:37:11;;;;;;;0.03;0.00;;;;;;;-0.03;70.81;100223.91;5067908;28;20515;-80
2023/02/02 01:39:38;;;;;;;0.30;0.00;;;;;;;-0.07;71.06;100227.28;5065039;28;20477;-80
2023/02/02 01:42:12;;;;;;;0.77;0.00;;;;;;;-0.08;70.81;100226.41;5066922;28;20050;-81
2023/02/02 01:45:14;;;;;;;0.30;0.00;;;;;;;-0.10;70.49;100229.81;5063274;28;20044;-80
2023/02/02 01:47:45;;;;;;;0.10;0.00;;;;;;;-0.14;70.67;100231.47;5061001;28;20045;-81
2023/02/02 01:50:15;;;;;;;0.08;0.00;;;;;;;-0.16;71.08;100234.84;5056770;28;20048;-81
2023/02/02 01:52:45;;;;;;;1.65;0.10;;;;;;;-0.18;70.60;100241.66;5060580;28;20048;-81
2023/02/02 01:55:15;;;;;;;0.00;0.00;;;;;;;-0.20;70.76;100248.44;5065578;28;20045;-81
2023/02/02 01:57:46;;;;;;;0.13;0.00;;;;;;;-0.22;70.37;100250.16;5064709;28;20044;-81
2023/02/02 02:00:17;;;;;;;0.00;0.00;;;;;;;-0.25;70.98;100262.09;5055810;28;20047;-81
2023/02/02 02:02:48;;;;;;;1.27;0.00;;;;;;;-0.28;70.95;100271.44;5068948;28;20063;-80
2023/02/02 02:05:21;;;;;;;0.10;0.00;;;;;;;-0.29;70.67;100267.97;5066253;28;20079;-80
2023/02/02 02:07:50;;;;;;;0.00;0.00;;;;;;;-0.31;70.70;100268.81;5067099;28;20055;-81
2023/02/02 02:10:17;;;;;;;0.32;0.00;;;;;;;-0.33;70.72;100279.03;5065358;28;20424;-81
2023/02/02 02:12:45;;;;;;;0.08;0.00;;;;;;;-0.34;70.57;100276.44;5066679;28;20063;-81
2023/02/02 02:18:08;;;;;;;0.85;0.10;;;;;;;-0.40;70.13;100291.72;5062101;28;20050;-81
2023/02/02 02:28:03;;;;;;;0.00;0.00;;;;;;;-0.47;70.15;100308.72;5062434;28;20040;-81
2023/02/02 02:30:50;;;;;;;0.65;0.00;;;;;;;-0.56;70.32;100311.13;4991491;28;20043;-81
2023/02/02 02:33:27;;;;;;;0.00;0.00;;;;;;;-0.53;70.14;100324.00;5051199;28;20045;-81
2023/02/02 02:36:01;;;;;;;0.30;0.00;;;;;;;-0.57;70.64;100330.78;5066561;28;20055;-81
2023/02/02 02:38:36;;;;;;;1.25;0.00;;;;;;;-0.61;70.30;100331.53;5060732;28;20420;-81
2023/02/02 02:41:10;;;;;;;2.00;0.00;;;;;;;-0.63;70.56;100335.78;5067340;28;20531;-81
2023/02/02 02:43:41;;;;;;;0.90;0.00;;;;;;;-0.64;70.32;100343.44;5063031;28;20045;-80
2023/02/02 02:46:10;;;;;;;0.00;0.00;;;;;;;-0.66;69.76;100345.97;5067154;28;20044;-80
2023/02/02 02:48:38;;;;;;;0.20;0.00;;;;;;;-0.68;69.84;100347.66;5068027;28;20040;-81
2023/02/02 02:51:07;;;;;;;0.10;0.00;;;;;;;-0.72;70.15;100343.28;5059182;28;20045;-81
2023/02/02 02:53:37;;;;;;;0.30;0.00;;;;;;;-0.74;70.24;100353.53;5066641;28;20390;-81
2023/02/02 02:56:12;;;;;;;1.75;0.00;;;;;;;-0.75;70.00;100351.78;5071208;28;20412;-81
2023/02/02 02:58:46;;;;;;;0.00;0.00;;;;;;;-0.78;70.39;100361.97;5073198;28;20036;-81
2023/02/02 03:01:20;;;;;;;0.00;0.00;;;;;;;-0.82;70.06;100352.50;5065278;28;20063;-81
2023/02/02 03:04:04;;;;;;;0.20;0.00;;;;;;;-0.84;69.89;100361.84;5064025;28;20485;-81
2023/02/02 03:06:40;;;;;;;0.00;0.00;;;;;;;-0.88;69.91;100365.22;5064620;28;20304;-81
2023/02/02 03:09:10;;;;;;;0.00;0.00;;;;;;;-0.92;70.46;100371.94;5066931;28;20051;-82
2023/02/02 03:11:38;;;;;;;0.10;0.00;;;;;;;-0.94;69.89;100375.31;5069536;28;20043;-81
2023/02/02 03:14:08;;;;;;;1.35;0.00;;;;;;;-1.03;70.15;100369.97;5063665;28;20037;-81
2023/02/02 03:16:35;;;;;;;0.15;0.00;;;;;;;-1.01;69.96;100387.13;5066714;28;20048;-78
2023/02/02 03:19:05;;;;;;;0.00;0.00;;;;;;;-1.03;70.27;100395.63;5064780;28;20444;-77
2023/02/02 03:21:32;;;;;;;0.00;0.00;;;;;;;-1.08;69.94;100398.09;5063418;28;20047;-77
2023/02/02 03:23:59;;;;;;;1.65;0.00;;;;;;;-1.11;70.27;100398.03;5056696;28;20055;-78
2023/02/02 03:26:27;;;;;;;0.10;0.10;;;;;;;-1.14;70.03;100409.06;5063427;28;20044;-77
2023/02/02 03:28:56;;;;;;;0.00;0.00;;;;;;;-1.15;69.61;100411.59;5064705;28;20044;-78
2023/02/02 03:31:25;;;;;;;0.35;0.00;;;;;;;-1.21;69.47;100414.00;5067602;28;20045;-77
2023/02/02 03:33:52;;;;;;;0.00;0.00;;;;;;;-1.22;69.82;100423.41;5061855;28;20044;-77
2023/02/02 03:36:20;;;;;;;0.00;0.00;;;;;;;-1.25;69.89;100430.13;5063470;28;20041;-77
2023/02/02 03:38:47;;;;;;;0.45;0.00;;;;;;;-1.27;70.25;100430.09;5064498;28;20053;-77
2023/02/02 03:41:14;;;;;;;0.00;0.00;;;;;;;-1.27;70.15;100437.78;5068107;28;20044;-77
2023/02/02 03:43:41;;;;;;;0.00;0.00;;;;;;;-1.27;70.37;100444.63;5059887;28;20056;-77
2023/02/02 03:46:08;;;;;;;0.30;0.00;;;;;;;-1.34;70.25;100435.91;5061762;28;20045;-77
2023/02/02 03:48:36;;;;;;;0.10;0.00;;;;;;;-1.28;70.21;100445.44;5058260;28;20033;-77
2023/02/02 03:51:06;;;;;;;1.17;0.00;;;;;;;-1.28;70.40;100450.56;5063958;28;20051;-77
2023/02/02 03:53:35;;;;;;;0.00;0.00;;;;;;;-1.29;70.11;100459.94;5068463;28;20041;-74
2023/02/02 03:56:01;;;;;;;0.30;0.20;;;;;;;-1.29;70.54;100464.22;5056675;28;20420;-74
2023/02/02 03:58:28;;;;;;;0.00;0.00;;;;;;;-1.34;70.25;100456.41;5058750;28;20052;-75
2023/02/02 04:01:02;;;;;;;0.00;0.00;;;;;;;-1.29;70.58;100470.19;5061687;28;20056;-74
2023/02/02 04:03:29;;;;;;;0.00;0.00;;;;;;;-1.29;70.37;100475.31;5057534;28;20489;-74
2023/02/02 04:05:55;;;;;;;0.43;0.43;;;;;;;-1.29;69.96;100477.88;5060755;28;20139;-75
2023/02/02 04:08:22;;;;;;;0.00;0.00;;;;;;;-1.29;70.65;100475.31;5057802;28;20053;-73
2023/02/02 04:10:50;;;;;;;0.13;0.00;;;;;;;-1.29;70.30;100483.00;5058026;28;20049;-75
2023/02/02 04:13:17;;;;;;;0.43;0.05;;;;;;;-1.28;70.22;100489.88;5055090;28;20489;-75
2023/02/02 04:15:44;;;;;;;0.22;0.00;;;;;;;-1.34;70.19;100482.03;5060537;28;20424;-75
2023/02/02 04:18:11;;;;;;;0.70;0.00;;;;;;;-1.26;70.80;100505.28;5062241;28;20051;-75
2023/02/02 04:20:38;;;;;;;0.00;0.00;;;;;;;-1.25;70.79;100509.56;5054707;28;20045;-75
2023/02/02 04:23:05;;;;;;;0.10;0.00;;;;;;;-1.25;70.11;100514.69;5060705;28;20053;-74
2023/02/02 04:25:32;;;;;;;0.00;0.00;;;;;;;-1.24;70.64;100516.44;5059827;28;20055;-74
2023/02/02 04:28:00;;;;;;;0.05;0.00;;;;;;;-1.24;70.61;100525.00;5061720;28;20050;-75
2023/02/02 04:30:27;;;;;;;0.00;0.00;;;;;;;-1.23;70.75;100521.59;5064562;28;20049;-76
2023/02/02 04:32:54;;;;;;;0.10;0.00;;;;;;;-1.22;70.45;100519.94;5061050;28;20041;-75
2023/02/02 04:35:21;;;;;;;0.05;0.00;;;;;;;-1.20;70.50;100520.81;5061617;28;20051;-75
2023/02/02 04:37:48;;;;;;;0.10;0.00;;;;;;;-1.20;70.69;100515.69;5057817;28;20041;-74
2023/02/02 04:40:15;;;;;;;0.20;0.10;;;;;;;-1.19;70.42;100536.25;5061055;28;20048;-75
2023/02/02 04:42:44;;;;;;;0.10;0.10;;;;;;;-1.18;70.70;100542.22;5059549;28;20409;-74
2023/02/02 04:45:12;;;;;;;0.55;0.00;;;;;;;-1.17;70.74;100542.28;5061175;28;20045;-75
2023/02/02 04:47:39;;;;;;;0.60;0.00;;;;;;;-1.22;70.87;100538.72;5056518;28;20052;-75
2023/02/02 04:50:07;;;;;;;0.28;0.10;;;;;;;-1.16;70.67;100549.13;5058556;28;20045;-74
2023/02/02 04:52:34;;;;;;;0.90;0.10;;;;;;;-1.20;70.78;100549.88;5059730;28;20051;-74
2023/02/02 04:55:01;;;;;;;0.40;0.15;;;;;;;-1.15;70.47;100561.09;5056061;28;20148;-74
2023/02/02 04:57:28;;;;;;;0.32;0.17;;;;;;;-1.14;70.38;100573.13;5058633;28;20056;-74
2023/02/02 04:59:55;;;;;;;1.50;0.15;;;;;;;-1.14;70.90;100579.91;5056623;28;20049;-75
2023/02/02 05:02:23;;;;;;;2.88;0.20;;;;;;;-1.13;70.42;100579.09;5058280;28;20055;-75
2023/02/02 05:04:50;;;;;;;0.50;0.20;;;;;;;-1.13;70.65;100585.09;5058218;28;20049;-75
2023/02/02 05:07:17;;;;;;;0.20;0.10;;;;;;;-1.13;70.43;100591.91;5052550;28;20417;-74
2023/02/02 05:09:43;;;;;;;0.30;0.10;;;;;;;-1.13;70.91;100595.34;5061375;28;20459;-75
2023/02/02 05:12:10;;;;;;;0.63;0.20;;;;;;;-1.13;70.37;100595.34;5055426;28;20047;-75
2023/02/02 05:14:37;;;;;;;3.47;0.20;;;;;;;-1.13;70.38;100600.47;5057887;28;20044;-75
2023/02/02 05:17:04;;;;;;;0.77;0.20;;;;;;;-1.15;70.80;100607.25;5058985;28;20048;-74
2023/02/02 05:19:32;;;;;;;0.75;0.20;;;;;;;-1.12;70.87;100611.59;5056620;28;20070;-75
2023/02/02 05:21:59;;;;;;;0.70;0.28;;;;;;;-1.13;70.95;100613.28;5057066;28;20055;-75
2023/02/02 05:24:26;;;;;;;2.60;0.20;;;;;;;-1.11;70.64;100617.56;5053437;28;20049;-75
2023/02/02 05:26:57;;;;;;;2.45;0.30;;;;;;;-1.10;70.24;100616.75;5059877;28;20052;-75
2023/02/02 05:29:24;;;;;;;0.65;0.20;;;;;;;-1.15;69.95;100622.63;5054888;28;20382;-74
2023/02/02 05:31:51;;;;;;;2.58;0.35;;;;;;;-1.10;70.47;100616.75;5050560;28;20494;-76
2023/02/02 05:34:18;;;;;;;1.90;0.20;;;;;;;-1.11;69.98;100627.81;5054692;28;20040;-75
2023/02/02 05:36:46;;;;;;;0.68;0.28;;;;;;;-1.11;70.52;100630.38;5053318;28;20055;-75
2023/02/02 05:39:13;;;;;;;0.30;0.20;;;;;;;-1.20;70.43;100631.88;5057727;28;20135;-74
2023/02/02 05:41:41;;;;;;;1.25;0.20;;;;;;;-1.12;70.40;100644.91;5053631;28;20048;-75
2023/02/02 05:44:09;;;;;;;2.25;0.15;;;;;;;-1.14;70.37;100656.81;5051400;28;20074;-75
2023/02/02 05:46:36;;;;;;;0.60;0.38;;;;;;;-1.15;70.42;100657.66;5055785;28;20052;-75
2023/02/02 05:49:03;;;;;;;1.75;0.20;;;;;;;-1.16;70.62;100663.59;5053963;28;20041;-76
2023/02/02 05:51:34;;;;;;;0.70;0.30;;;;;;;-1.16;70.00;100671.31;5058943;28;20045;-75
2023/02/02 05:54:03;;;;;;;1.02;0.20;;;;;;;-1.17;69.97;100665.31;5055024;28;20809;-75
2023/02/02 05:56:29;;;;;;;0.30;0.20;;;;;;;-1.18;70.58;100678.94;5053049;28;20040;-75
2023/02/02 05:58:56;;;;;;;0.15;0.10;;;;;;;-1.21;70.04;100678.00;5053788;28;20060;-74
2023/02/02 06:01:23;;;;;;;3.50;0.40;;;;;;;-1.18;70.00;100689.19;5051525;28;20057;-75
2023/02/02 06:03:50;;;;;;;0.40;0.25;;;;;;;-1.20;70.29;100685.69;5054605;28;20416;-75
2023/02/02 06:06:17;;;;;;;3.15;0.20;;;;;;;-1.21;69.94;100693.38;5049020;28;20049;-75
2023/02/02 06:08:44;;;;;;;1.38;0.20;;;;;;;-1.25;69.96;100687.28;5051547;28;20525;-75
2023/02/02 06:11:13;;;;;;;0.30;0.10;;;;;;;-1.23;70.22;100698.44;5055593;28;20037;-75
2023/02/02 06:13:40;;;;;;;0.50;0.20;;;;;;;-1.24;70.26;100708.66;5052705;28;20059;-76
2023/02/02 06:16:08;;;;;;;0.13;0.10;;;;;;;-1.26;69.37;100711.16;5053408;28;20049;-74
2023/02/02 06:18:36;;;;;;;0.70;0.22;;;;;;;-1.45;70.25;100683.28;5057509;28;20048;-74
2023/02/02 06:21:05;;;;;;;1.10;0.28;;;;;;;-1.29;69.67;100711.06;5055066;28;20046;-74
2023/02/02 06:23:33;;;;;;;1.00;0.20;;;;;;;-1.32;69.88;100718.69;5053223;28;20049;-74
2023/02/02 06:26:02;;;;;;;0.90;0.20;;;;;;;-1.31;70.02;100728.13;5052712;28;20449;-74
2023/02/02 06:28:30;;;;;;;0.68;0.20;;;;;;;-1.34;69.50;100728.00;5055753;28;20075;-75
2023/02/02 06:31:04;;;;;;;0.75;0.20;;;;;;;-1.36;70.37;100733.09;5055537;28;20053;-75
2023/02/02 06:33:31;;;;;;;0.55;0.20;;;;;;;-1.38;69.54;100741.56;5055133;28;20490;-75
2023/02/02 06:35:59;;;;;;;0.20;0.13;;;;;;;-1.39;69.90;100750.09;5053662;28;20041;-75
2023/02/02 06:38:26;;;;;;;0.20;0.20;;;;;;;-1.42;69.60;100748.31;5060242;28;20052;-76
2023/02/02 06:40:53;;;;;;;0.82;0.20;;;;;;;-1.43;69.82;100755.94;5061417;28;20055;-74
2023/02/02 06:43:20;;;;;;;1.38;0.10;;;;;;;-1.45;70.03;100752.44;5057482;28;20414;-75
2023/02/02 06:45:48;;;;;;;0.70;0.20;;;;;;;-1.47;69.76;100762.66;5055577;28;20051;-75
2023/02/02 06:48:15;;;;;;;0.80;0.00;;;;;;;-1.59;69.48;100746.94;5050766;28;20045;-75
2023/02/02 06:50:42;;;;;;;0.30;0.30;;;;;;;-1.51;69.97;100773.63;5055348;28;20045;-75
2023/02/02 06:53:09;;;;;;;0.57;0.17;;;;;;;-1.51;69.95;100775.31;5058401;28;20387;-75
2023/02/02 06:55:35;;;;;;;0.25;0.10;;;;;;;-1.55;69.94;100784.63;5057659;28;20040;-76
2023/02/02 06:58:02;;;;;;;0.55;0.17;;;;;;;-1.53;69.85;100787.25;5054688;28;20049;-77
2023/02/02 07:00:30;;;;;;;0.57;0.15;;;;;;;-1.54;70.16;100790.59;5059541;28;20044;-77
2023/02/02 07:02:59;;;;;;;3.17;0.20;;;;;;;-1.54;70.19;100790.59;5058835;28;21146;-76
2023/02/02 07:05:28;;;;;;;2.30;0.15;;;;;;;-1.54;70.31;100800.84;5056129;28;20043;-77
2023/02/02 07:07:55;;;;;;;1.95;0.10;;;;;;;-1.55;69.74;100799.13;5055612;28;20044;-78
2023/02/02 07:10:22;;;;;;;0.50;0.20;;;;;;;-1.56;70.24;100808.50;5058529;28;20041;-76
2023/02/02 07:12:49;;;;;;;0.40;0.20;;;;;;;-1.55;70.50;100811.94;5056077;28;20045;-77
2023/02/02 07:15:16;;;;;;;0.68;0.25;;;;;;;-1.55;70.38;100819.63;5054457;28;20045;-77
2023/02/02 07:17:43;;;;;;;2.38;0.10;;;;;;;-1.56;70.21;100818.75;5058060;28;20405;-77
2023/02/02 07:20:12;;;;;;;1.88;0.20;;;;;;;-1.55;70.32;100820.47;5056529;28;20055;-76
2023/02/02 07:22:39;;;;;;;3.75;0.22;;;;;;;-1.54;70.29;100821.34;5058122;28;20128;-77
2023/02/02 07:25:06;;;;;;;0.85;0.20;;;;;;;-1.53;70.48;100829.09;5061642;28;20049;-77
2023/02/02 07:27:33;;;;;;;0.22;0.10;;;;;;;-1.53;70.51;100834.22;5052953;28;20041;-75
2023/02/02 07:30:01;;;;;;;0.35;0.10;;;;;;;-1.53;70.19;100833.34;5058102;28;20047;-75
2023/02/02 07:32:27;;;;;;;1.05;0.20;;;;;;;-1.53;70.22;100838.47;5059704;28;20055;-75
2023/02/02 07:34:54;;;;;;;0.32;0.20;;;;;;;-1.53;70.28;100847.03;5060612;28;20416;-75
2023/02/02 07:37:22;;;;;;;0.20;0.10;;;;;;;-1.53;70.18;100841.91;5060466;28;20059;-75
2023/02/02 07:39:49;;;;;;;0.35;0.20;;;;;;;-1.54;70.20;100858.06;5066983;28;20421;-80
2023/02/02 07:42:16;;;;;;;2.42;0.20;;;;;;;-1.53;69.80;100854.72;5065451;28;20045;-80
2023/02/02 07:44:43;;;;;;;0.30;0.10;;;;;;;-1.58;70.37;100856.25;5063859;28;20056;-77
2023/02/02 07:47:10;;;;;;;1.08;0.08;;;;;;;-1.52;70.56;100860.69;5063335;28;20074;-78
2023/02/02 07:49:37;;;;;;;1.00;0.10;;;;;;;-1.53;70.28;100871.78;5060994;28;20393;-77
2023/02/02 07:52:04;;;;;;;0.30;0.15;;;;;;;-1.52;70.44;100870.94;5059283;28;20052;-77
2023/02/02 07:54:32;;;;;;;0.20;0.10;;;;;;;-1.53;70.54;100869.22;5067307;28;20378;-78
2023/02/02 07:57:01;;;;;;;3.30;0.20;;;;;;;-1.52;70.50;100878.63;5060537;28;20045;-79
2023/02/02 07:59:28;;;;;;;0.13;0.13;;;;;;;-1.54;70.43;100888.81;5062708;28;20091;-79
2023/02/02 08:01:54;;;;;;;0.25;0.10;;;;;;;-1.52;70.46;100897.41;5055608;28;20705;-78
2023/02/02 08:04:21;;;;;;;0.10;0.03;;;;;;;-1.58;70.43;100895.53;5063798;28;20040;-78
2023/02/02 08:06:48;;;;;;;0.40;0.20;;;;;;;-1.50;70.50;100913.72;5058210;28;20037;-76
2023/02/02 08:09:15;;;;;;;0.10;0.10;;;;;;;-1.54;70.47;100908.44;5061630;28;20059;-76
2023/02/02 08:11:43;;;;;;;2.45;0.28;;;;;;;-1.49;70.24;100924.84;5058521;28;20055;-77
2023/02/02 08:14:13;;;;;;;0.20;0.10;;;;;;;-1.51;70.33;100931.59;5058352;28;20037;-78
2023/02/02 08:16:40;;;;;;;0.80;0.20;;;;;;;-1.52;70.69;100932.41;5064965;28;20040;-77
2023/02/02 08:19:07;;;;;;;0.30;0.10;;;;;;;-1.48;70.56;100942.84;5061439;28;20099;-78
2023/02/02 08:21:34;;;;;;;0.68;0.10;;;;;;;-1.47;70.40;100946.25;5063677;28;20052;-76
2023/02/02 08:24:01;;;;;;;1.38;0.20;;;;;;;-1.46;70.55;100959.09;5063762;28;20420;-78
2023/02/02 08:26:30;;;;;;;0.22;0.13;;;;;;;-1.44;70.34;100956.59;5064072;28;20036;-77
2023/02/02 08:28:59;;;;;;;0.10;0.10;;;;;;;-1.43;70.17;100968.59;5068043;28;20515;-79
2023/02/02 08:31:29;;;;;;;0.50;0.20;;;;;;;-1.41;69.92;100972.06;5067950;28;20053;-77
2023/02/02 08:33:57;;;;;;;0.40;0.10;;;;;;;-1.50;70.33;100958.97;5061139;28;20106;-75
2023/02/02 08:36:25;;;;;;;0.85;0.22;;;;;;;-1.49;70.24;100955.56;5057884;28;20045;-75
2023/02/02 08:38:52;;;;;;;0.20;0.10;;;;;;;-1.38;70.27;100977.31;5055541;28;20055;-75
2023/02/02 08:41:21;;;;;;;3.55;0.38;;;;;;;-1.39;70.03;100979.00;5053483;28;20510;-75
2023/02/02 08:43:49;;;;;;;0.47;0.10;;;;;;;-1.52;70.11;100953.78;5063321;28;20503;-75
2023/02/02 08:46:19;;;;;;;0.60;0.25;;;;;;;-1.37;70.43;100968.78;5058649;28;20444;-75
2023/02/02 08:48:46;;;;;;;0.63;0.10;;;;;;;-1.36;69.95;100979.09;5058437;28;20045;-78
2023/02/02 08:51:15;;;;;;;0.20;0.10;;;;;;;-1.33;70.26;100985.16;5057765;28;20044;-76
2023/02/02 08:53:43;;;;;;;0.75;0.10;;;;;;;-1.51;70.38;100957.22;5057518;28;20045;-77
2023/02/02 08:56:11;;;;;;;0.20;0.10;;;;;;;-1.33;69.93;100996.28;5056072;28;20049;-78
2023/02/02 08:58:39;;;;;;;0.40;0.20;;;;;;;-1.32;70.13;101003.13;5060543;28;20051;-79
2023/02/02 09:01:09;;;;;;;0.57;0.20;;;;;;;-1.37;69.68;100997.88;5059115;28;20503;-78
2023/02/02 09:03:39;;;;;;;0.70;0.10;;;;;;;-1.32;69.86;101018.50;5056769;28;20055;-76
2023/02/02 09:06:07;;;;;;;0.20;0.10;;;;;;;-1.45;70.02;100996.75;5062852;28;20448;-77
2023/02/02 09:08:34;;;;;;;2.47;0.20;;;;;;;-1.46;69.70;101000.09;5062644;28;20048;-76
2023/02/02 09:11:07;;;;;;;0.47;0.20;;;;;;;-1.38;69.65;101031.13;5058928;28;20041;-77
2023/02/02 09:13:34;;;;;;;0.73;0.20;;;;;;;-1.32;69.72;101043.25;5059579;28;20480;-78
2023/02/02 09:16:01;;;;;;;0.20;0.10;;;;;;;-1.35;69.28;101044.03;5065296;28;20054;-78
2023/02/02 09:18:28;;;;;;;0.20;0.10;;;;;;;-1.34;69.61;101048.31;5061331;28;20049;-77
2023/02/02 09:21:00;;;;;;;0.30;0.10;;;;;;;-1.33;69.22;101052.66;5056140;28;20045;-76
2023/02/02 09:23:29;;;;;;;0.30;0.10;;;;;;;-1.33;69.68;101062.03;5060942;28;20040;-76
2023/02/02 09:25:56;;;;;;;0.55;0.10;;;;;;;-1.34;69.13;101061.13;5059717;28;20059;-75
2023/02/02 09:28:23;;;;;;;0.47;0.20;;;;;;;-1.34;69.48;101066.25;5064074;28;20047;-76
2023/02/02 09:30:50;;;;;;;1.27;0.20;;;;;;;-1.47;69.63;101047.03;5056695;28;20481;-75
2023/02/02 09:33:17;;;;;;;0.65;0.20;;;;;;;-1.35;69.11;101067.09;5057593;28;20053;-82
2023/02/02 09:35:43;;;;;;;1.90;0.13;;;;;;;-1.35;69.19;101067.09;5062891;28;20052;-81
2023/02/02 09:38:12;;;;;;;0.65;0.10;;;;;;;-1.35;68.96;101085.03;5064179;28;20050;-78
2023/02/02 09:40:40;;;;;;;0.30;0.20;;;;;;;-1.53;69.39;101045.97;5054652;28;20049;-83
2023/02/02 09:43:24;;;;;;;1.13;0.20;;;;;;;-1.37;69.07;101073.84;5064005;28;20044;-80
2023/02/02 09:45:59;;;;;;;0.50;0.17;;;;;;;-1.35;69.47;101085.03;5059140;28;20405;-84
2023/02/02 09:48:37;;;;;;;0.25;0.20;;;;;;;-1.65;69.42;101039.59;5060958;28;20053;-82
2023/02/02 09:51:08;;;;;;;1.67;0.20;;;;;;;-1.36;68.86;101093.56;5070039;28;20051;-80
2023/02/02 09:53:44;;;;;;;1.20;0.25;;;;;;;-1.64;69.32;101043.91;5065004;28;20132;-83
2023/02/02 09:56:15;;;;;;;;;;;;;;;-1.33;68.97;101096.22;5066663;28;20062;-82
2023/02/02 09:58:50;;;;;;;0.55;0.10;;;;;;;-1.33;69.37;101098.78;5062413;28;20027;-83
2023/02/02 10:01:21;;;;;;;0.93;0.10;;;;;;;-1.35;68.87;101095.28;5057107;28;20064;-78
2023/02/02 10:03:58;;;;;;;0.15;0.10;;;;;;;-1.49;68.94;101084.53;5062896;28;20084;-78
2023/02/02 10:06:33;;;;;;;0.40;0.10;;;;;;;-1.34;69.05;101108.97;5055145;28;20047;-78
2023/02/02 10:09:16;;;;;;;0.95;0.10;;;;;;;-1.33;68.93;101109.03;5053724;28;20585;-77
2023/02/02 10:11:51;;;;;;;0.28;0.10;;;;;;;-1.32;69.06;101121.00;5055099;28;20056;-77
2023/02/02 10:14:19;;;;;;;;;;;;;;;-1.32;68.86;101122.72;5061960;28;20055;-77
2023/02/02 10:16:49;;;;;;;1.70;0.25;;;;;;;-1.31;69.12;101138.16;5057911;28;19930;-77
2023/02/02 10:19:16;;;;;;;1.95;0.20;;;;;;;-1.29;68.90;101135.63;5065189;28;20057;-76
2023/02/02 10:21:50;;;;;;;3.63;0.20;;;;;;;-1.29;68.92;101146.75;5063866;28;20495;-77
2023/02/02 10:24:20;;;;;;;0.55;0.20;;;;;;;-1.28;69.15;101143.38;5058484;28;20478;-77
2023/02/02 10:26:50;;;;;;;0.47;0.20;;;;;;;-1.32;69.07;101132.97;5059811;28;20044;-77
2023/02/02 10:29:33;;;;;;;0.93;0.20;;;;;;;-1.30;68.75;101142.44;5062082;28;20535;-77
2023/02/02 10:32:11;;;;;;;0.40;0.20;;;;;;;-1.25;68.93;101143.50;5058890;28;20048;-77
2023/02/02 10:34:42;;;;;;;1.27;0.20;;;;;;;-1.27;68.90;101147.69;5060158;28;20049;-77
2023/02/02 10:37:22;;;;;;;0.20;0.15;;;;;;;-1.21;68.82;101149.59;5056357;28;20055;-77
2023/02/02 10:40:10;;;;;;;0.70;0.30;;;;;;;-1.20;68.78;101153.88;5062589;28;20457;-77
2023/02/02 10:43:44;;;;;;;0.45;0.10;;;;;;;-1.22;68.81;101158.09;5060391;28;20051;-77
2023/02/02 10:45:40;;;;;;;0.82;0.20;;;;;;;-1.22;68.88;101155.53;5059906;28;20130;-77
2023/02/02 10:48:15;;;;;;;1.65;0.20;;;;;;;-1.25;68.50;101155.41;5062228;28;20049;-77
2023/02/02 10:50:45;;;;;;;0.73;0.20;;;;;;;-1.16;68.45;101169.44;5062411;28;20048;-77
2023/02/02 10:53:14;;;;;;;0.98;0.20;;;;;;;-1.15;68.58;101171.19;5059284;28;20115;-77
2023/02/02 10:55:49;;;;;;;0.30;0.30;;;;;;;-1.16;68.82;101169.44;5060118;28;20041;-77
2023/02/02 10:58:24;;;;;;;0.22;0.20;;;;;;;-1.14;68.61;101172.94;5060502;28;20059;-78
2023/02/02 11:00:53;;;;;;;0.60;0.20;;;;;;;-1.17;68.32;101167.72;5063074;28;20147;-76
2023/02/02 11:03:25;;;;;;;0.73;0.30;;;;;;;-1.13;68.54;101177.25;5059981;28;20053;-77
2023/02/02 11:08:39;;;;;;;0.10;0.10;;;;;;;-1.13;67.98;101190.06;5067586;28;20048;-77
2023/02/02 11:11:17;;;;;;;0.30;0.20;;;;;;;-1.11;68.67;101186.66;5059910;28;20057;-77
2023/02/02 11:13:50;;;;;;;1.75;0.20;;;;;;;-1.10;68.18;101196.97;5061985;28;20075;-77
2023/02/02 11:16:26;;;;;;;1.42;0.20;;;;;;;-1.09;68.36;101193.59;5060981;28;20037;-77
2023/02/02 11:18:54;;;;;;;0.20;0.20;;;;;;;-1.04;68.63;101204.03;5057558;28;20048;-77
2023/02/02 11:21:26;;;;;;;0.40;0.22;;;;;;;-1.03;68.78;101209.19;5056698;28;20560;-76
2023/02/02 11:23:55;;;;;;;0.50;0.20;;;;;;;-1.00;68.50;101205.88;5062183;28;20048;-78
2023/02/02 11:26:24;;;;;;;3.00;0.28;;;;;;;-1.02;67.90;101207.53;5063509;28;20041;-76
2023/02/02 11:28:53;;;;;;;0.40;0.20;;;;;;;-0.98;67.59;101214.50;5065305;28;20052;-76
2023/02/02 11:31:31;;;;;;;0.73;0.20;;;;;;;-0.94;68.15;101221.47;5056973;28;20815;-76
2023/02/02 11:34:10;;;;;;;0.20;0.17;;;;;;;-0.94;67.72;101221.47;5063080;28;20041;-76
2023/02/02 11:36:37;;;;;;;0.65;0.10;;;;;;;-0.96;68.35;101218.84;5060061;28;20394;-77
2023/02/02 11:39:16;;;;;;;0.30;0.30;;;;;;;-0.91;67.63;101226.72;5060152;28;20047;-78
2023/02/02 11:41:44;;;;;;;0.40;0.20;;;;;;;-0.88;68.39;101237.09;5060801;28;20052;-77
2023/02/02 11:44:24;;;;;;;0.25;0.10;;;;;;;-0.86;67.94;101248.25;5059910;28;20060;-76
2023/02/02 11:46:52;;;;;;;1.20;0.10;;;;;;;-0.88;68.08;101242.22;5057437;28;20041;-76
2023/02/02 11:49:22;;;;;;;0.63;0.10;;;;;;;-0.88;68.25;101244.78;5056662;28;20055;-76